Time;durP1;ratioP1;P1;durP2;ratioP2;P2;SDS_P1;SDS_P2;PMS_P1;PMS_P2;Temp;Humidity;BMP_temperature;BMP_pressure;BME280_temperature;BME280_humidity;BME280_pressure;Samples;Min_cycle;Max_cycle;Signal;HPM_P1;HPM_P2
2022/11/06 00:01:31;;;;;;;8.43;4.72;;;12.10;74.60;;;;;;5026065;28;20361;-59
2022/11/06 00:03:57;;;;;;;8.98;4.00;;;12.00;74.60;;;;;;5021119;28;20026;-60
2022/11/06 00:09:10;;;;;;;11.88;4.38;;;12.10;74.60;;;;;;5023142;28;20113;-59
2022/11/06 00:11:37;;;;;;;8.45;4.05;;;12.10;74.60;;;;;;5021134;28;20340;-60
2022/11/06 00:14:03;;;;;;;9.48;4.32;;;12.10;74.60;;;;;;5016556;28;20030;-60
2022/11/06 00:16:29;;;;;;;9.85;4.18;;;12.00;74.60;;;;;;5036420;28;20455;-60
2022/11/06 00:18:55;;;;;;;10.40;4.22;;;12.10;74.80;;;;;;5021817;28;20030;-60
2022/11/06 00:21:23;;;;;;;11.20;3.97;;;12.00;74.70;;;;;;5029946;28;20057;-60
2022/11/06 00:23:49;;;;;;;10.20;4.35;;;12.00;74.70;;;;;;5016710;28;20048;-59
2022/11/06 00:26:25;;;;;;;12.50;4.47;;;12.00;74.80;;;;;;5032864;28;20521;-60
2022/11/06 00:28:52;;;;;;;9.35;4.25;;;12.00;74.80;;;;;;5017090;28;20124;-60
2022/11/06 00:31:23;;;;;;;11.07;4.05;;;12.00;74.90;;;;;;5018265;28;20040;-59
2022/11/06 00:33:49;;;;;;;9.77;4.28;;;12.00;74.90;;;;;;5022689;28;20121;-60
2022/11/06 00:36:17;;;;;;;10.30;4.10;;;12.00;74.90;;;;;;5017079;28;20113;-59
2022/11/06 00:38:43;;;;;;;8.43;4.03;;;11.90;74.90;;;;;;5034758;28;20018;-59
2022/11/06 00:41:11;;;;;;;9.10;4.25;;;12.00;75.00;;;;;;5021772;28;20443;-60
2022/11/06 00:43:37;;;;;;;7.43;3.50;;;12.00;75.00;;;;;;5024051;28;20028;-59
2022/11/06 00:46:05;;;;;;;11.13;4.10;;;12.00;74.90;;;;;;5025797;28;20034;-60
2022/11/06 00:48:31;;;;;;;10.50;4.68;;;12.00;74.90;;;;;;5023623;28;20084;-60
2022/11/06 00:51:10;;;;;;;9.90;4.50;;;12.00;75.50;;;;;;5037495;28;20029;-59
2022/11/06 00:53:36;;;;;;;10.85;4.47;;;12.00;74.80;;;;;;5023983;28;20044;-59
2022/11/06 00:56:09;;;;;;;9.10;3.83;;;12.00;74.80;;;;;;5024446;28;20030;-59
2022/11/06 00:58:35;;;;;;;11.57;3.45;;;12.00;74.90;;;;;;5019248;28;20103;-59
2022/11/06 01:01:16;;;;;;;7.57;3.53;;;12.00;74.90;;;;;;5034326;28;20021;-59
2022/11/06 01:03:44;;;;;;;10.15;3.33;;;12.00;74.90;;;;;;5023434;28;20018;-59
2022/11/06 01:06:18;;;;;;;9.60;3.63;;;12.00;74.90;;;;;;5026151;28;20037;-60
2022/11/06 01:08:44;;;;;;;13.70;4.18;;;11.90;75.10;;;;;;5029298;28;20362;-59
2022/11/06 01:11:17;;;;;;;12.30;3.90;;;11.90;75.00;;;;;;5030239;28;20065;-60
2022/11/06 01:13:44;;;;;;;8.77;4.00;;;11.90;75.00;;;;;;5018238;28;20061;-60
2022/11/06 01:16:12;;;;;;;11.48;3.70;;;11.90;75.00;;;;;;5031917;28;20029;-60
2022/11/06 01:18:39;;;;;;;10.60;3.70;;;11.90;75.00;;;;;;5030530;28;20079;-59
2022/11/06 01:21:07;;;;;;;9.88;3.85;;;11.90;75.10;;;;;;5035528;28;20084;-60
2022/11/06 01:23:33;;;;;;;9.15;3.63;;;11.90;75.00;;;;;;5027926;28;20088;-60
2022/11/06 01:26:02;;;;;;;9.27;3.17;;;11.90;75.00;;;;;;5029778;28;20037;-60
2022/11/06 01:28:28;;;;;;;8.55;3.25;;;11.90;75.00;;;;;;5019533;28;20127;-59
2022/11/06 01:30:54;;;;;;;8.18;3.25;;;11.90;75.00;;;;;;5036521;28;20036;-60
2022/11/06 01:33:20;;;;;;;7.18;3.05;;;11.90;75.00;;;;;;5024681;28;20461;-60
2022/11/06 01:35:48;;;;;;;8.90;3.45;;;11.90;75.10;;;;;;5026563;28;20091;-59
2022/11/06 01:38:14;;;;;;;9.23;3.22;;;11.90;75.10;;;;;;5018971;28;20073;-59
2022/11/06 01:40:45;;;;;;;10.43;4.30;;;11.90;75.00;;;;;;5027638;28;20095;-60
2022/11/06 01:43:15;;;;;;;7.25;3.50;;;12.00;75.00;;;;;;5023863;28;20030;-60
2022/11/06 01:45:44;;;;;;;6.53;2.88;;;12.00;75.00;;;;;;5033502;28;20477;-59
2022/11/06 01:48:11;;;;;;;8.27;3.35;;;12.00;75.00;;;;;;5018960;28;20443;-60
2022/11/06 01:50:39;;;;;;;7.30;2.92;;;12.00;75.00;;;;;;5025326;28;20029;-59
2022/11/06 01:53:05;;;;;;;7.88;4.00;;;11.90;74.90;;;;;;5024175;28;20037;-59
2022/11/06 01:55:37;;;;;;;8.88;3.10;;;12.00;74.90;;;;;;5034082;28;20029;-60
2022/11/06 01:58:04;;;;;;;;;;;12.00;74.90;;;;;;5032687;28;20111;-60
2022/11/06 02:00:31;;;;;;;7.95;2.85;;;11.90;74.90;;;;;;5028598;28;19909;-59
2022/11/06 02:02:57;;;;;;;6.93;3.00;;;11.90;74.90;;;;;;5027566;28;20569;-59
2022/11/06 02:05:23;;;;;;;8.48;2.97;;;11.90;74.90;;;;;;5020856;28;20478;-59
2022/11/06 02:07:49;;;;;;;9.27;2.67;;;11.90;75.50;;;;;;5027801;28;20029;-59
2022/11/06 02:10:15;;;;;;;7.28;2.83;;;11.90;74.90;;;;;;5027845;28;20034;-60
2022/11/06 02:12:53;;;;;;;7.03;3.05;;;11.90;75.60;;;;;;5028154;28;20467;-60
2022/11/06 02:16:08;;;;;;;7.53;3.20;;;11.90;75.00;;;;;;5026297;28;20037;-60
2022/11/06 02:19:03;;;;;;;9.82;3.25;;;11.90;74.90;;;;;;5020499;28;20048;-60
2022/11/06 02:21:39;;;;;;;7.90;3.10;;;11.90;75.00;;;;;;5014979;28;20049;-60
2022/11/06 02:24:18;;;;;;;7.03;2.60;;;11.90;74.90;;;;;;5019430;28;20447;-59
2022/11/06 02:27:15;;;;;;;7.88;2.67;;;11.90;74.90;;;;;;5032807;28;20033;-60
2022/11/06 02:29:50;;;;;;;9.73;3.30;;;11.90;75.00;;;;;;5012995;28;20036;-60
2022/11/06 02:32:27;;;;;;;8.20;2.67;;;11.90;75.00;;;;;;5029564;28;20540;-60
2022/11/06 02:34:54;;;;;;;6.30;2.70;;;11.90;75.00;;;;;;5014530;28;20447;-59
2022/11/06 02:37:27;;;;;;;6.60;2.60;;;11.80;75.00;;;;;;5027262;28;20029;-60
2022/11/06 02:39:56;;;;;;;6.90;2.78;;;11.90;75.10;;;;;;5025211;28;20030;-60
2022/11/06 02:42:24;;;;;;;9.00;3.00;;;11.90;75.20;;;;;;5029471;28;20462;-59
2022/11/06 02:44:53;;;;;;;7.63;3.10;;;11.90;75.00;;;;;;5013145;28;20037;-60
2022/11/06 02:47:20;;;;;;;7.43;2.50;;;11.90;75.00;;;;;;5016590;28;20030;-59
2022/11/06 02:50:02;;;;;;;9.70;3.10;;;11.90;75.10;;;;;;5016130;28;20030;-59
2022/11/06 02:52:37;;;;;;;7.45;3.28;;;11.90;75.10;;;;;;5027017;28;20057;-60
2022/11/06 02:55:14;;;;;;;7.93;3.03;;;11.90;75.10;;;;;;5014166;28;20034;-59
2022/11/06 02:57:45;;;;;;;8.57;2.65;;;11.90;75.10;;;;;;5017835;28;20026;-60
2022/11/06 03:00:13;;;;;;;5.50;2.45;;;11.90;75.10;;;;;;5023056;28;20026;-60
2022/11/06 03:02:50;;;;;;;5.50;2.20;;;11.90;75.10;;;;;;5029133;28;20056;-60
2022/11/06 03:05:22;;;;;;;6.28;2.90;;;11.90;75.10;;;;;;5015715;28;20117;-60
2022/11/06 03:07:55;;;;;;;6.40;2.97;;;11.90;75.10;;;;;;5025130;28;20362;-60
2022/11/06 03:10:29;;;;;;;8.27;2.60;;;11.90;75.10;;;;;;5024766;28;20113;-59
2022/11/06 03:13:17;;;;;;;5.80;2.50;;;11.90;75.00;;;;;;5020214;28;20060;-60
2022/11/06 03:15:56;;;;;;;7.82;2.58;;;11.90;75.10;;;;;;5015148;28;20041;-60
2022/11/06 03:18:33;;;;;;;9.63;3.30;;;11.90;75.20;;;;;;5020317;28;20025;-59
2022/11/06 03:21:01;;;;;;;7.05;2.50;;;11.80;75.10;;;;;;5020716;28;20133;-60
2022/11/06 03:23:43;;;;;;;5.95;2.50;;;11.80;75.20;;;;;;5014127;28;20022;-59
2022/11/06 03:26:16;;;;;;;;;;;11.90;75.20;;;;;;5014865;28;20059;-59
2022/11/06 03:28:53;;;;;;;7.65;2.60;;;11.90;75.20;;;;;;5026629;28;19936;-60
2022/11/06 03:31:39;;;;;;;6.70;2.00;;;11.80;75.10;;;;;;5004199;28;20068;-60
2022/11/06 03:34:09;;;;;;;8.07;2.80;;;11.80;75.10;;;;;;5014493;28;20044;-59
2022/11/06 03:36:46;;;;;;;9.27;2.42;;;11.80;75.10;;;;;;5020254;28;20038;-59
2022/11/06 03:39:18;;;;;;;7.80;2.50;;;11.90;75.20;;;;;;5034824;28;20030;-60
2022/11/06 03:41:54;;;;;;;7.47;2.50;;;11.90;75.20;;;;;;5017499;28;20033;-59
2022/11/06 03:44:26;;;;;;;9.57;3.13;;;11.90;75.10;;;;;;5022976;28;20026;-60
2022/11/06 03:47:02;;;;;;;8.48;2.85;;;11.90;75.20;;;;;;5017757;28;20108;-59
2022/11/06 03:49:36;;;;;;;7.72;2.85;;;11.90;75.20;;;;;;5009423;28;20038;-60
2022/11/06 03:52:09;;;;;;;6.15;2.33;;;11.90;75.20;;;;;;5021860;28;20037;-59
2022/11/06 03:54:41;;;;;;;6.82;2.40;;;11.90;75.20;;;;;;5026813;28;20036;-60
2022/11/06 03:57:17;;;;;;;9.52;2.60;;;11.80;75.20;;;;;;5029295;28;20033;-59
2022/11/06 03:59:48;;;;;;;6.53;2.20;;;11.90;75.30;;;;;;5022364;28;20096;-59
2022/11/06 04:02:16;;;;;;;6.28;2.45;;;11.90;75.30;;;;;;5018572;28;20038;-60
2022/11/06 04:04:56;;;;;;;8.25;2.65;;;11.90;75.20;;;;;;5018886;28;20057;-59
2022/11/06 04:07:34;;;;;;;6.57;2.55;;;11.90;75.20;;;;;;5017328;28;20033;-59
2022/11/06 04:16:02;;;;;;;8.73;2.63;;;11.90;75.30;;;;;;5022440;28;20562;-59
2022/11/06 04:18:27;;;;;;;7.82;2.35;;;11.90;75.20;;;;;;5034588;28;20362;-60
2022/11/06 04:21:29;;;;;;;11.15;3.03;;;11.90;75.20;;;;;;5029560;28;20183;-59
2022/11/06 04:27:07;;;;;;;10.52;2.38;;;11.90;75.20;;;;;;5021710;28;20030;-59
2022/11/06 04:29:52;;;;;;;;;;;12.00;75.30;;;;;;5024768;28;20348;-60
2022/11/06 04:32:34;;;;;;;6.38;2.38;;;11.90;75.30;;;;;;5027018;28;20294;-59
2022/11/06 04:35:27;;;;;;;5.82;2.15;;;11.90;75.30;;;;;;5031011;28;20041;-59
2022/11/06 04:37:58;;;;;;;6.20;2.30;;;11.90;75.30;;;;;;4996949;28;20486;-59
2022/11/06 04:40:47;;;;;;;5.38;2.35;;;11.90;75.30;;;;;;5011531;28;20045;-60
2022/11/06 04:43:25;;;;;;;6.43;2.10;;;11.90;75.40;;;;;;5004331;28;20493;-59
2022/11/06 04:45:55;;;;;;;10.48;2.17;;;11.90;75.40;;;;;;4978713;28;20046;-59
2022/11/06 04:48:23;;;;;;;7.05;2.33;;;11.90;75.50;;;;;;4985914;28;20085;-59
2022/11/06 04:50:55;;;;;;;6.78;2.20;;;11.90;75.50;;;;;;4981574;28;20161;-59
2022/11/06 04:53:23;;;;;;;6.93;2.15;;;12.00;75.50;;;;;;4978265;28;20487;-59
2022/11/06 04:55:53;;;;;;;7.50;2.10;;;12.00;75.50;;;;;;4981749;28;20061;-59
2022/11/06 04:58:19;;;;;;;12.50;2.28;;;12.00;75.50;;;;;;4981232;28;20086;-60
2022/11/06 05:00:47;;;;;;;6.68;1.75;;;12.00;75.50;;;;;;4988297;28;20072;-59
2022/11/06 05:03:14;;;;;;;7.63;2.28;;;12.00;75.50;;;;;;4983458;28;20035;-60
2022/11/06 05:05:40;;;;;;;9.65;2.33;;;12.00;75.50;;;;;;4996500;28;20034;-60
2022/11/06 05:08:10;;;;;;;8.73;2.20;;;12.00;75.50;;;;;;4974779;28;20480;-60
2022/11/06 05:10:36;;;;;;;7.80;2.72;;;12.00;75.50;;;;;;4983119;28;20138;-59
2022/11/06 05:13:01;;;;;;;7.80;2.20;;;12.10;75.60;;;;;;4977040;28;20035;-60
2022/11/06 05:15:27;;;;;;;10.55;2.42;;;12.10;75.60;;;;;;4991775;28;21488;-59
2022/11/06 05:17:53;;;;;;;8.05;2.08;;;12.10;75.60;;;;;;4997746;28;20026;-60
2022/11/06 05:20:18;;;;;;;5.78;2.35;;;12.10;75.60;;;;;;4996615;28;20050;-60
2022/11/06 05:22:59;;;;;;;8.18;2.42;;;12.00;75.60;;;;;;5003139;28;20113;-59
2022/11/06 05:25:31;;;;;;;8.68;2.63;;;12.00;75.70;;;;;;4999408;28;20034;-60
2022/11/06 05:27:58;;;;;;;5.68;1.90;;;12.00;75.70;;;;;;5000804;28;20038;-59
2022/11/06 05:30:24;;;;;;;6.82;2.28;;;12.00;75.70;;;;;;5004185;28;20085;-59
2022/11/06 05:32:50;;;;;;;6.55;2.05;;;12.00;75.70;;;;;;5015923;28;20045;-60
2022/11/06 05:35:17;;;;;;;11.60;2.10;;;12.00;75.70;;;;;;5024901;28;20057;-59
2022/11/06 05:37:43;;;;;;;8.30;2.35;;;12.00;75.80;;;;;;5029966;28;20077;-59
2022/11/06 05:40:09;;;;;;;5.75;2.20;;;12.00;75.80;;;;;;5006153;28;20395;-60
2022/11/06 05:42:39;;;;;;;6.93;2.00;;;12.00;75.80;;;;;;4998081;28;20026;-60
2022/11/06 05:45:06;;;;;;;6.28;1.92;;;12.00;75.80;;;;;;5007943;28;20347;-59
2022/11/06 05:47:31;;;;;;;5.82;2.30;;;12.00;75.80;;;;;;5000516;28;20026;-60
2022/11/06 05:49:57;;;;;;;10.18;2.55;;;12.00;75.80;;;;;;5001608;28;20104;-60
2022/11/06 05:52:23;;;;;;;8.38;2.17;;;12.00;75.90;;;;;;5003036;28;20462;-60
2022/11/06 05:54:48;;;;;;;8.90;2.78;;;12.00;75.90;;;;;;5003030;28;20037;-60
2022/11/06 05:57:14;;;;;;;5.53;2.17;;;12.10;75.90;;;;;;5002434;28;20030;-59
2022/11/06 05:59:40;;;;;;;8.23;2.13;;;12.10;75.90;;;;;;5015490;28;20022;-60
2022/11/06 06:02:05;;;;;;;6.50;2.03;;;12.00;75.90;;;;;;5020258;28;20347;-60
2022/11/06 06:04:31;;;;;;;6.55;2.15;;;12.10;75.90;;;;;;5014887;28;20037;-59
2022/11/06 06:06:56;;;;;;;6.65;2.22;;;12.10;75.90;;;;;;5018674;28;20046;-59
2022/11/06 06:09:22;;;;;;;6.47;2.13;;;12.10;75.90;;;;;;5024626;28;20029;-60
2022/11/06 06:11:52;;;;;;;9.43;2.30;;;12.10;75.90;;;;;;5017785;28;20406;-60
2022/11/06 06:14:18;;;;;;;7.60;2.17;;;12.10;75.90;;;;;;5022541;28;20018;-60
2022/11/06 06:16:44;;;;;;;5.05;1.98;;;12.10;76.00;;;;;;5021412;28;20041;-60
2022/11/06 06:19:10;;;;;;;7.82;2.13;;;12.10;76.00;;;;;;5022278;28;20021;-60
2022/11/06 06:21:35;;;;;;;7.57;1.98;;;12.10;75.90;;;;;;5019293;28;20045;-59
2022/11/06 06:24:03;;;;;;;5.78;1.90;;;12.10;75.90;;;;;;5014235;28;20030;-60
2022/11/06 06:26:28;;;;;;;8.10;2.63;;;12.10;76.00;;;;;;5013989;28;20357;-61
2022/11/06 06:28:54;;;;;;;6.70;2.05;;;12.10;76.00;;;;;;5014405;28;20025;-61
2022/11/06 06:31:20;;;;;;;7.18;2.20;;;12.10;76.10;;;;;;5017539;28;20460;-61
2022/11/06 06:33:45;;;;;;;7.15;2.20;;;12.10;76.00;;;;;;5029133;28;20032;-61
2022/11/06 06:36:11;;;;;;;5.97;2.08;;;12.10;76.00;;;;;;5035551;28;20018;-61
2022/11/06 06:38:36;;;;;;;6.57;2.17;;;12.10;76.00;;;;;;5035366;28;20541;-61
2022/11/06 06:41:03;;;;;;;7.25;2.47;;;12.10;76.00;;;;;;5034451;28;20033;-61
2022/11/06 06:43:29;;;;;;;5.55;2.05;;;12.10;75.90;;;;;;5031016;28;20029;-61
2022/11/06 06:46:00;;;;;;;6.80;2.28;;;12.10;75.90;;;;;;5026521;28;20391;-61
2022/11/06 06:48:26;;;;;;;6.72;2.55;;;12.10;76.00;;;;;;5034934;28;20385;-64
2022/11/06 06:50:51;;;;;;;8.02;1.88;;;12.10;75.90;;;;;;5035196;28;20030;-61
2022/11/06 06:53:17;;;;;;;5.53;1.95;;;12.10;75.90;;;;;;5034737;28;20469;-61
2022/11/06 06:55:43;;;;;;;7.50;2.17;;;12.10;75.90;;;;;;5034926;28;20052;-61
2022/11/06 06:58:09;;;;;;;5.10;1.70;;;12.10;75.90;;;;;;5026977;28;20064;-61
2022/11/06 07:00:35;;;;;;;4.45;1.70;;;12.10;75.90;;;;;;5034035;28;20404;-61
2022/11/06 07:03:01;;;;;;;6.00;1.70;;;12.20;75.90;;;;;;5028922;28;20053;-61
2022/11/06 07:05:27;;;;;;;5.30;2.00;;;12.10;75.90;;;;;;5020548;28;20052;-61
2022/11/06 07:07:52;;;;;;;7.43;2.33;;;12.10;75.90;;;;;;5022389;28;20034;-61
2022/11/06 07:10:18;;;;;;;7.45;2.20;;;12.10;75.90;;;;;;5023046;28;20087;-61
2022/11/06 07:12:44;;;;;;;4.93;1.83;;;12.20;75.80;;;;;;5027110;28;20402;-61
2022/11/06 07:15:10;;;;;;;6.93;1.65;;;12.10;75.80;;;;;;5014512;28;20049;-61
2022/11/06 07:17:35;;;;;;;5.97;2.05;;;12.10;75.80;;;;;;5021757;28;20029;-61
2022/11/06 07:20:02;;;;;;;6.38;2.10;;;12.20;75.80;;;;;;5015926;28;20045;-63
2022/11/06 07:22:28;;;;;;;8.40;2.30;;;12.20;75.80;;;;;;5033125;28;20033;-61
2022/11/06 07:24:53;;;;;;;5.07;2.15;;;12.20;75.80;;;;;;5013227;28;20044;-62
2022/11/06 07:27:19;;;;;;;6.22;2.17;;;12.30;75.70;;;;;;5017404;28;20105;-61
2022/11/06 07:29:45;;;;;;;5.85;2.05;;;12.40;75.70;;;;;;5016625;28;20036;-61
2022/11/06 07:32:11;;;;;;;8.40;2.72;;;12.40;75.60;;;;;;5017338;28;20033;-60
2022/11/06 07:34:37;;;;;;;6.53;2.05;;;12.40;75.40;;;;;;5021637;28;20033;-61
2022/11/06 07:37:06;;;;;;;7.97;2.65;;;12.50;75.40;;;;;;5013544;28;20049;-61
2022/11/06 07:39:32;;;;;;;5.97;1.90;;;12.50;75.20;;;;;;5024505;28;20030;-61
2022/11/06 07:41:57;;;;;;;5.47;1.75;;;12.50;75.10;;;;;;5030897;28;20034;-61
2022/11/06 07:44:32;;;;;;;6.65;2.17;;;12.50;75.10;;;;;;5023058;28;20105;-61
2022/11/06 07:46:57;;;;;;;6.63;2.00;;;12.50;75.10;;;;;;5023621;28;20109;-61
2022/11/06 07:49:23;;;;;;;5.85;2.45;;;12.50;75.10;;;;;;5016789;28;20033;-61
2022/11/06 07:51:48;;;;;;;6.18;1.67;;;12.60;75.10;;;;;;5023486;28;20148;-61
2022/11/06 07:54:14;;;;;;;6.70;2.35;;;12.60;75.10;;;;;;5024276;28;20451;-61
2022/11/06 07:56:39;;;;;;;7.30;2.42;;;12.60;75.10;;;;;;5025642;28;20112;-61
2022/11/06 07:59:05;;;;;;;8.15;1.83;;;12.60;75.10;;;;;;5018409;28;20070;-61
2022/11/06 08:01:31;;;;;;;5.32;1.92;;;12.60;75.00;;;;;;5030036;28;20021;-61
2022/11/06 08:03:56;;;;;;;5.43;1.70;;;12.60;75.00;;;;;;5011557;28;20026;-61
2022/11/06 08:06:22;;;;;;;7.35;2.15;;;12.60;74.90;;;;;;5026959;28;20084;-61
2022/11/06 08:08:48;;;;;;;6.18;1.90;;;12.70;74.90;;;;;;5018187;28;20057;-61
2022/11/06 08:11:14;;;;;;;5.05;1.65;;;12.70;74.80;;;;;;5024515;28;20036;-61
2022/11/06 08:13:39;;;;;;;6.82;2.05;;;12.70;74.80;;;;;;5019474;28;20026;-61
2022/11/06 08:16:07;;;;;;;6.15;1.98;;;12.70;74.80;;;;;;5029585;28;20030;-61
2022/11/06 08:18:33;;;;;;;8.63;2.03;;;12.70;74.70;;;;;;5017691;28;20030;-61
2022/11/06 08:20:59;;;;;;;4.45;1.77;;;12.70;74.70;;;;;;5022699;28;20054;-61
2022/11/06 08:23:24;;;;;;;7.40;2.13;;;12.70;74.70;;;;;;5024488;28;20018;-61
2022/11/06 08:25:58;;;;;;;5.57;1.50;;;12.70;74.70;;;;;;5025562;28;20091;-60
2022/11/06 08:28:24;;;;;;;5.28;2.03;;;12.80;74.60;;;;;;5018363;28;20354;-61
2022/11/06 08:30:50;;;;;;;5.78;1.70;;;12.80;74.60;;;;;;5029771;28;20033;-61
2022/11/06 08:33:16;;;;;;;5.78;1.73;;;12.80;74.50;;;;;;5017916;28;20343;-61
2022/11/06 08:35:42;;;;;;;4.82;1.80;;;12.80;74.40;;;;;;5022128;28;20030;-61
2022/11/06 08:38:07;;;;;;;6.20;1.80;;;12.90;74.40;;;;;;5017064;28;20034;-61
2022/11/06 08:40:36;;;;;;;5.53;1.70;;;13.00;74.40;;;;;;5023564;28;20026;-60
2022/11/06 08:43:04;;;;;;;5.35;1.77;;;13.00;74.40;;;;;;5025932;28;20502;-62
2022/11/06 08:45:30;;;;;;;6.88;2.17;;;13.00;74.30;;;;;;5017723;28;20021;-61
2022/11/06 08:48:01;;;;;;;5.93;1.90;;;13.10;74.30;;;;;;5015711;28;20030;-61
2022/11/06 08:50:27;;;;;;;5.13;1.60;;;13.00;74.20;;;;;;5014733;28;20092;-61
2022/11/06 08:52:56;;;;;;;6.18;1.92;;;13.00;74.20;;;;;;5017074;28;20037;-60
2022/11/06 08:55:22;;;;;;;8.50;1.90;;;13.10;74.20;;;;;;5022185;28;20029;-61
2022/11/06 08:57:47;;;;;;;4.80;1.90;;;13.00;74.10;;;;;;5031794;28;20056;-61
2022/11/06 09:00:14;;;;;;;9.27;1.73;;;13.10;74.10;;;;;;5028387;28;20112;-61
2022/11/06 09:02:40;;;;;;;5.15;1.60;;;13.10;74.10;;;;;;5008672;28;20026;-61
2022/11/06 09:05:07;;;;;;;2.75;1.42;;;13.10;74.10;;;;;;5014441;28;20026;-61
2022/11/06 09:07:33;;;;;;;6.90;1.98;;;13.00;74.00;;;;;;5025941;28;20033;-61
2022/11/06 09:09:59;;;;;;;6.28;2.00;;;13.10;74.10;;;;;;5036957;28;20044;-61
2022/11/06 09:12:24;;;;;;;7.85;1.95;;;13.10;74.00;;;;;;5025766;28;20033;-61
2022/11/06 09:14:50;;;;;;;6.40;1.90;;;13.10;73.90;;;;;;5036928;28;20033;-61
2022/11/06 09:17:16;;;;;;;5.05;1.85;;;13.10;73.90;;;;;;5036546;28;20030;-61
2022/11/06 09:19:42;;;;;;;7.35;1.90;;;13.20;73.90;;;;;;5036835;28;20017;-61
2022/11/06 09:22:08;;;;;;;8.57;2.03;;;13.20;73.80;;;;;;5036566;28;20105;-61
2022/11/06 09:24:33;;;;;;;8.02;1.77;;;13.20;73.80;;;;;;5036602;28;20407;-61
2022/11/06 09:26:59;;;;;;;5.60;1.98;;;13.20;73.80;;;;;;5033023;28;20033;-61
2022/11/06 09:29:24;;;;;;;5.80;1.83;;;13.20;73.70;;;;;;5030952;28;20427;-61
2022/11/06 09:31:50;;;;;;;5.80;1.55;;;13.30;74.30;;;;;;5036626;28;20053;-61
2022/11/06 09:34:16;;;;;;;4.60;1.75;;;13.40;73.60;;;;;;5036512;28;20033;-61
2022/11/06 09:36:41;;;;;;;5.85;1.92;;;13.40;73.40;;;;;;5036442;28;20120;-61
2022/11/06 09:39:07;;;;;;;5.28;1.67;;;13.50;73.30;;;;;;5036754;28;20022;-61
2022/11/06 09:41:52;;;;;;;6.43;1.70;;;13.50;73.20;;;;;;5030193;28;20029;-61
2022/11/06 09:44:21;;;;;;;9.65;2.00;;;13.60;73.10;;;;;;5036561;28;20028;-61
2022/11/06 09:46:47;;;;;;;4.90;1.67;;;13.50;73.00;;;;;;5035996;28;20072;-61
2022/11/06 09:49:32;;;;;;;6.80;2.10;;;13.60;73.00;;;;;;5036363;28;20067;-61
2022/11/06 09:52:12;;;;;;;5.93;1.65;;;13.60;73.00;;;;;;5036144;28;20033;-61
2022/11/06 09:55:02;;;;;;;7.20;1.70;;;13.50;72.90;;;;;;5036098;28;20118;-61
2022/11/06 09:57:31;;;;;;;6.32;1.70;;;13.60;73.00;;;;;;5036084;28;20131;-61
2022/11/06 09:59:59;;;;;;;5.75;1.70;;;13.60;73.00;;;;;;5028701;28;20036;-61
2022/11/06 10:02:34;;;;;;;5.70;2.00;;;13.60;73.00;;;;;;5023245;28;20402;-61
2022/11/06 10:05:16;;;;;;;4.07;1.35;;;13.60;72.90;;;;;;5034969;28;20359;-61
2022/11/06 10:07:42;;;;;;;;;;;13.60;72.90;;;;;;5036384;28;20030;-61
2022/11/06 10:10:15;;;;;;;5.22;1.58;;;13.60;72.90;;;;;;5035938;28;19923;-61
2022/11/06 10:13:02;;;;;;;5.90;1.92;;;13.60;72.90;;;;;;5028256;28;20026;-61
2022/11/06 10:15:48;;;;;;;7.93;2.05;;;13.60;72.90;;;;;;5029451;28;20060;-61
2022/11/06 10:18:50;;;;;;;8.30;1.75;;;13.60;72.80;;;;;;5016020;28;20108;-61
2022/11/06 10:21:19;;;;;;;4.60;1.67;;;13.70;72.80;;;;;;5024107;28;20100;-61
2022/11/06 10:23:47;;;;;;;6.32;1.63;;;13.70;72.60;;;;;;5035184;28;20366;-61
2022/11/06 10:26:17;;;;;;;9.93;2.25;;;13.70;72.50;;;;;;5032577;28;20116;-61
2022/11/06 10:29:20;;;;;;;5.13;1.70;;;13.80;72.50;;;;;;5012393;28;20439;-61
2022/11/06 10:32:03;;;;;;;4.65;1.73;;;13.70;72.50;;;;;;5021927;28;20056;-61
2022/11/06 10:34:36;;;;;;;5.70;1.90;;;13.70;72.60;;;;;;5020597;28;20057;-61
2022/11/06 10:37:14;;;;;;;6.97;2.00;;;13.70;72.50;;;;;;5020485;28;20350;-61
2022/11/06 10:39:40;;;;;;;6.90;1.73;;;13.70;72.40;;;;;;5021059;28;20346;-60
2022/11/06 10:42:15;;;;;;;7.60;2.10;;;13.70;72.30;;;;;;5022416;28;20050;-61
2022/11/06 10:44:51;;;;;;;6.65;2.00;;;13.80;72.20;;;;;;5023136;28;20035;-61
2022/11/06 10:47:20;;;;;;;6.25;1.92;;;13.90;72.10;;;;;;5022360;28;20033;-61
2022/11/06 10:49:53;;;;;;;5.95;1.73;;;14.00;71.90;;;;;;5023917;28;20025;-61
2022/11/06 10:52:47;;;;;;;4.18;1.52;;;14.00;71.80;;;;;;5028787;28;20041;-62
2022/11/06 10:55:34;;;;;;;8.52;2.30;;;14.00;71.70;;;;;;5022459;28;20454;-61
2022/11/06 10:58:11;;;;;;;7.35;1.90;;;14.00;71.60;;;;;;5024601;28;20039;-61
2022/11/06 11:00:37;;;;;;;5.60;1.60;;;14.00;71.60;;;;;;5025003;28;20442;-61
2022/11/06 11:03:26;;;;;;;8.00;1.88;;;14.00;71.60;;;;;;5020804;28;20166;-61
2022/11/06 11:05:51;;;;;;;5.30;1.58;;;14.00;71.50;;;;;;5021817;28;20029;-61
2022/11/06 11:08:34;;;;;;;7.00;1.98;;;14.00;71.50;;;;;;5019615;28;20084;-61
2022/11/06 11:11:12;;;;;;;6.22;1.85;;;14.10;71.40;;;;;;5012232;28;20022;-61
2022/11/06 11:13:41;;;;;;;3.75;1.83;;;14.10;71.30;;;;;;5019088;28;20467;-61
2022/11/06 11:16:19;;;;;;;4.68;1.52;;;14.10;71.20;;;;;;5029312;28;20025;-61
2022/11/06 11:18:46;;;;;;;6.00;1.80;;;14.10;71.00;;;;;;5019128;28;20096;-61
2022/11/06 11:21:17;;;;;;;6.43;1.80;;;14.10;70.90;;;;;;5034109;28;20406;-61
2022/11/06 11:24:03;;;;;;;;;;;14.00;70.90;;;;;;5016018;28;20030;-61
2022/11/06 11:26:31;;;;;;;4.68;1.42;;;14.00;71.00;;;;;;5024749;28;19920;-61
2022/11/06 11:29:00;;;;;;;6.25;1.83;;;13.90;71.00;;;;;;5014321;28;20034;-61
2022/11/06 11:31:33;;;;;;;6.25;1.55;;;13.90;71.00;;;;;;5016030;28;20027;-61
2022/11/06 11:34:05;;;;;;;7.32;1.77;;;13.90;70.90;;;;;;5015733;28;20038;-61
2022/11/06 11:36:54;;;;;;;5.90;1.90;;;14.00;70.90;;;;;;5033259;28;20025;-61
2022/11/06 11:39:24;;;;;;;8.18;2.15;;;14.00;70.60;;;;;;5019730;28;20323;-61
2022/11/06 11:41:50;;;;;;;9.75;1.83;;;14.00;70.60;;;;;;5018876;28;20041;-61
2022/11/06 11:44:19;;;;;;;6.97;1.70;;;14.00;70.60;;;;;;5025486;28;20108;-61
2022/11/06 11:46:46;;;;;;;9.35;2.33;;;14.00;70.40;;;;;;5011917;28;20096;-61
2022/11/06 11:49:30;;;;;;;7.55;2.20;;;14.00;70.30;;;;;;5018949;28;20032;-61
2022/11/06 11:52:10;;;;;;;10.25;1.70;;;14.10;70.20;;;;;;5018454;28;20030;-61
2022/11/06 11:54:36;;;;;;;7.40;1.75;;;14.10;70.10;;;;;;5010035;28;20395;-62
2022/11/06 11:57:05;;;;;;;5.55;1.90;;;14.10;70.00;;;;;;5006331;28;20026;-62
2022/11/06 11:59:37;;;;;;;7.07;1.98;;;14.10;70.00;;;;;;5012292;28;20068;-62
2022/11/06 12:02:17;;;;;;;4.45;1.27;;;14.10;69.80;;;;;;5031998;28;20021;-62
2022/11/06 12:04:48;;;;;;;5.17;1.67;;;14.20;69.60;;;;;;5029802;28;20025;-61
2022/11/06 12:07:26;;;;;;;5.80;1.58;;;14.20;69.50;;;;;;5026025;28;20675;-61
2022/11/06 12:09:55;;;;;;;6.07;1.48;;;14.20;69.20;;;;;;5023269;28;20136;-62
2022/11/06 12:12:30;;;;;;;9.40;1.52;;;14.20;69.10;;;;;;5013969;28;20030;-61
2022/11/06 12:15:18;;;;;;;3.70;1.45;;;14.20;68.80;;;;;;5013626;28;20030;-61
2022/11/06 12:18:07;;;;;;;6.75;1.48;;;14.10;68.50;;;;;;5014263;28;20437;-62
2022/11/06 12:20:41;;;;;;;6.18;1.35;;;14.10;68.50;;;;;;5028610;28;20050;-61
2022/11/06 12:23:33;;;;;;;7.32;1.75;;;14.20;68.50;;;;;;5021494;28;20212;-62
2022/11/06 12:26:10;;;;;;;6.00;2.25;;;14.20;68.30;;;;;;5019037;28;20350;-61
2022/11/06 12:28:39;;;;;;;5.97;1.70;;;14.10;68.20;;;;;;5028393;28;20034;-61
2022/11/06 12:31:38;;;;;;;8.10;1.80;;;14.10;68.20;;;;;;5013428;28;20033;-61
2022/11/06 12:34:10;;;;;;;5.72;1.70;;;14.10;68.10;;;;;;4996313;28;20042;-61
2022/11/06 12:36:42;;;;;;;5.40;1.40;;;14.10;68.20;;;;;;4977123;28;20038;-61
2022/11/06 12:39:22;;;;;;;6.10;1.40;;;14.10;68.20;;;;;;4977281;28;20050;-61
2022/11/06 12:41:49;;;;;;;5.15;1.58;;;14.10;68.20;;;;;;4996318;28;20138;-61
2022/11/06 12:44:16;;;;;;;5.10;1.63;;;14.10;68.10;;;;;;4994342;28;20442;-61
2022/11/06 12:47:07;;;;;;;4.25;1.50;;;14.10;68.10;;;;;;4996312;28;20038;-61
2022/11/06 12:50:08;;;;;;;9.13;1.73;;;14.10;67.90;;;;;;4975321;28;20101;-61
2022/11/06 12:52:45;;;;;;;5.93;1.38;;;14.10;67.80;;;;;;5003330;28;20030;-61
2022/11/06 12:55:28;;;;;;;3.88;1.20;;;14.10;67.80;;;;;;4997153;28;20030;-61
2022/11/06 12:58:19;;;;;;;5.43;1.55;;;14.10;67.60;;;;;;4994953;28;20058;-61
2022/11/06 13:01:12;;;;;;;4.30;1.33;;;14.10;67.60;;;;;;5002889;28;20058;-61
2022/11/06 13:03:49;;;;;;;4.60;1.40;;;14.10;67.60;;;;;;5008610;28;20316;-61
2022/11/06 13:06:40;;;;;;;6.15;1.67;;;14.10;67.60;;;;;;4997609;28;20037;-61
2022/11/06 13:09:22;;;;;;;6.30;1.70;;;14.10;67.70;;;;;;4996291;28;20100;-61
2022/11/06 13:11:54;;;;;;;5.00;1.50;;;14.10;67.60;;;;;;5013353;28;20112;-61
2022/11/06 13:14:36;;;;;;;4.78;1.38;;;14.10;67.70;;;;;;5008901;28;20029;-61
2022/11/06 13:17:24;;;;;;;8.15;1.70;;;14.20;67.70;;;;;;5036730;28;20105;-61
2022/11/06 13:20:00;;;;;;;6.45;1.38;;;14.20;67.70;;;;;;5033255;28;20029;-62
2022/11/06 13:22:38;;;;;;;6.85;1.98;;;14.20;67.70;;;;;;5034537;28;20048;-61